Time;durP1;ratioP1;P1;durP2;ratioP2;P2;SDS_P1;SDS_P2;PMS_P1;PMS_P2;Temp;Humidity;BMP_temperature;BMP_pressure;BME280_temperature;BME280_humidity;BME280_pressure;Samples;Min_cycle;Max_cycle;Signal;HPM_P1;HPM_P2
2024/03/17 00:01:43;;;;;;;126.37;119.87;;;21.50;81.80;;;;;;5071248;28;20230;-72
2024/03/17 00:04:11;;;;;;;103.33;97.90;;;21.80;81.70;;;;;;5074524;28;20182;-72
2024/03/17 00:06:38;;;;;;;81.30;76.97;;;21.90;81.50;;;;;;5082954;28;20183;-73
2024/03/17 00:09:09;;;;;;;63.10;59.70;;;21.90;80.40;;;;;;5094152;28;20205;-75
2024/03/17 00:11:37;;;;;;;56.23;53.13;;;22.00;80.10;;;;;;5085071;28;20193;-71
2024/03/17 00:14:05;;;;;;;56.37;53.03;;;22.00;80.20;;;;;;5072053;28;20671;-73
2024/03/17 00:16:32;;;;;;;43.03;40.57;;;22.30;79.50;;;;;;5088709;28;20178;-72
2024/03/17 00:19:00;;;;;;;38.23;35.90;;;22.30;79.60;;;;;;5092195;28;20287;-70
2024/03/17 00:21:27;;;;;;;30.50;28.70;;;22.40;79.60;;;;;;5083308;28;20289;-72
2024/03/17 00:23:56;;;;;;;28.47;26.47;;;22.40;79.80;;;;;;5086957;28;20261;-73
2024/03/17 00:26:24;;;;;;;24.43;23.03;;;22.60;78.90;;;;;;5100236;28;20264;-70
2024/03/17 00:28:51;;;;;;;22.30;20.70;;;22.60;79.50;;;;;;5097320;28;20608;-70
2024/03/17 00:31:18;;;;;;;15.97;14.90;;;22.80;79.10;;;;;;5098810;28;20752;-72
2024/03/17 00:33:49;;;;;;;12.63;11.73;;;22.70;77.60;;;;;;5097026;28;20206;-73
2024/03/17 00:36:16;;;;;;;14.87;13.57;;;22.70;77.60;;;;;;5099452;28;20200;-71
2024/03/17 00:38:44;;;;;;;10.23;9.40;;;22.90;78.00;;;;;;5078278;28;20321;-76
2024/03/17 00:41:12;;;;;;;9.07;8.13;;;22.70;76.20;;;;;;5096300;28;20394;-72
2024/03/17 00:43:39;;;;;;;8.43;7.73;;;22.80;76.90;;;;;;5096075;28;20182;-78
2024/03/17 00:46:07;;;;;;;9.73;8.00;;;22.80;75.60;;;;;;5099522;28;20186;-77
2024/03/17 00:48:34;;;;;;;7.50;6.90;;;22.80;77.20;;;;;;5094437;28;20167;-77
2024/03/17 00:51:02;;;;;;;8.57;7.97;;;22.70;76.80;;;;;;5088884;28;20268;-74
2024/03/17 00:53:30;;;;;;;8.83;7.73;;;22.70;77.00;;;;;;5091232;28;20528;-72
2024/03/17 00:56:03;;;;;;;8.63;7.93;;;22.70;77.20;;;;;;5093133;28;20192;-72
2024/03/17 00:58:30;;;;;;;9.53;7.50;;;22.80;76.30;;;;;;5096008;28;20187;-73
2024/03/17 01:00:57;;;;;;;7.33;6.73;;;22.60;76.60;;;;;;5096070;28;20217;-72
2024/03/17 01:03:26;;;;;;;8.53;7.17;;;22.80;76.20;;;;;;5099548;28;20186;-72
2024/03/17 01:05:54;;;;;;;7.60;6.90;;;22.90;76.20;;;;;;5083018;28;20190;-73
2024/03/17 01:08:21;;;;;;;6.90;6.30;;;23.10;76.10;;;;;;5104814;28;20182;-72
2024/03/17 01:10:52;;;;;;;5.87;5.13;;;23.10;74.80;;;;;;5101046;28;20269;-71
2024/03/17 01:13:19;;;;;;;8.27;4.77;;;23.30;74.90;;;;;;5105464;28;20213;-78
2024/03/17 01:15:51;;;;;;;9.20;4.37;;;23.60;74.10;;;;;;5097907;28;20179;-73
2024/03/17 01:18:19;;;;;;;5.13;3.63;;;23.80;73.80;;;;;;5097185;28;20656;-73
2024/03/17 01:20:49;;;;;;;5.27;2.80;;;23.80;73.50;;;;;;5088215;28;20553;-73
2024/03/17 01:23:19;;;;;;;6.07;2.40;;;23.70;72.50;;;;;;5093130;28;20257;-74
2024/03/17 01:25:49;;;;;;;3.57;1.83;;;23.70;71.20;;;;;;5099802;28;20190;-72
2024/03/17 01:28:17;;;;;;;4.50;2.03;;;23.70;72.20;;;;;;5099161;28;20184;-72
2024/03/17 01:30:48;;;;;;;4.73;1.87;;;23.60;71.60;;;;;;5093973;28;20236;-77
2024/03/17 01:33:17;;;;;;;3.03;1.30;;;23.30;72.70;;;;;;5082290;28;20578;-71
2024/03/17 01:35:44;;;;;;;4.47;1.90;;;23.10;73.80;;;;;;5090767;28;20233;-76
2024/03/17 01:38:12;;;;;;;4.27;1.80;;;23.00;73.80;;;;;;5088438;28;20355;-71
2024/03/17 01:40:39;;;;;;;5.23;1.87;;;22.80;73.90;;;;;;5092017;28;20681;-74
2024/03/17 01:43:11;;;;;;;2.50;1.53;;;22.60;73.90;;;;;;5087294;28;20613;-73
2024/03/17 01:45:39;;;;;;;2.43;1.50;;;22.60;74.70;;;;;;5091050;28;20182;-77
2024/03/17 01:48:14;;;;;;;3.93;1.70;;;22.70;75.20;;;;;;5080013;28;20277;-71
2024/03/17 01:50:43;;;;;;;3.23;1.63;;;22.60;75.90;;;;;;5091342;28;20191;-74
2024/03/17 01:53:15;;;;;;;6.10;1.60;;;22.50;76.50;;;;;;5068998;28;20183;-76
2024/03/17 01:55:48;;;;;;;4.43;1.93;;;22.40;76.70;;;;;;5093172;28;20544;-76
2024/03/17 01:58:16;;;;;;;3.90;1.30;;;22.50;76.80;;;;;;5066865;28;20175;-73
2024/03/17 02:00:43;;;;;;;4.27;1.73;;;22.60;76.80;;;;;;5092912;28;20297;-72
2024/03/17 02:03:12;;;;;;;4.20;2.07;;;22.80;76.50;;;;;;5074822;28;20178;-73
2024/03/17 02:05:42;;;;;;;3.10;1.50;;;22.90;75.20;;;;;;5094026;28;20655;-73
2024/03/17 02:08:11;;;;;;;5.20;1.90;;;23.10;75.10;;;;;;5093645;28;20530;-74
2024/03/17 02:10:39;;;;;;;5.13;1.70;;;23.30;75.00;;;;;;5091716;28;20191;-74
2024/03/17 02:13:06;;;;;;;5.50;1.50;;;23.40;75.50;;;;;;5091771;28;20254;-72
2024/03/17 02:15:40;;;;;;;7.20;2.10;;;23.70;73.50;;;;;;5076790;28;20183;-74
2024/03/17 02:18:11;;;;;;;5.63;1.80;;;23.40;74.60;;;;;;5093383;28;20220;-71
2024/03/17 02:20:59;;;;;;;7.77;2.40;;;23.30;75.80;;;;;;5092323;28;20203;-74
2024/03/17 02:23:27;;;;;;;5.67;1.70;;;23.10;76.50;;;;;;5094998;28;20236;-71
2024/03/17 02:25:55;;;;;;;6.83;1.70;;;22.90;77.10;;;;;;5085890;28;20182;-73
2024/03/17 02:28:22;;;;;;;5.67;1.80;;;22.80;77.20;;;;;;5055419;28;20194;-72
2024/03/17 02:30:50;;;;;;;4.63;1.80;;;22.70;77.80;;;;;;5091328;28;20193;-73
2024/03/17 02:33:22;;;;;;;6.70;2.07;;;22.40;77.40;;;;;;5072548;28;20236;-73
2024/03/17 02:35:50;;;;;;;7.73;2.13;;;22.20;78.10;;;;;;5089428;28;20246;-74
2024/03/17 02:39:31;;;;;;;4.77;2.03;;;22.00;78.30;;;;;;5115013;27;20266;-73
2024/03/17 02:41:08;;;;;;;4.53;2.33;;;21.90;78.90;;;;;;5088885;28;20219;-75
2024/03/17 02:43:36;;;;;;;10.97;3.03;;;21.80;79.80;;;;;;5103263;27;20280;-71
2024/03/17 02:46:04;;;;;;;7.20;3.20;;;21.80;80.40;;;;;;5096734;28;20182;-72
2024/03/17 02:48:33;;;;;;;7.10;3.87;;;21.80;80.30;;;;;;5086930;28;20198;-72
2024/03/17 02:51:00;;;;;;;6.43;3.83;;;21.70;80.10;;;;;;5076476;28;20753;-74
2024/03/17 02:53:29;;;;;;;8.27;4.13;;;21.80;80.30;;;;;;5073636;28;20183;-75
2024/03/17 02:55:56;;;;;;;5.43;4.93;;;21.80;80.20;;;;;;5076803;28;20174;-76
2024/03/17 02:58:24;;;;;;;6.27;4.60;;;21.90;80.40;;;;;;5094177;28;20659;-75
2024/03/17 03:00:51;;;;;;;9.67;4.57;;;22.00;80.00;;;;;;5072792;28;21011;-76
2024/03/17 03:03:19;;;;;;;6.87;3.90;;;22.00;79.10;;;;;;5089984;28;20175;-72
2024/03/17 03:05:48;;;;;;;5.10;3.60;;;22.00;79.30;;;;;;5086247;28;20205;-73
2024/03/17 03:08:16;;;;;;;5.30;3.37;;;22.20;79.30;;;;;;5086808;28;20244;-72
2024/03/17 03:10:45;;;;;;;4.07;3.00;;;22.30;78.80;;;;;;5074191;28;20674;-72
2024/03/17 03:13:12;;;;;;;4.33;3.23;;;22.30;78.70;;;;;;5093591;28;20637;-72
2024/03/17 03:15:40;;;;;;;3.60;2.50;;;22.30;77.80;;;;;;5089732;28;20516;-73
2024/03/17 03:18:08;;;;;;;3.83;2.40;;;22.30;77.90;;;;;;5091283;28;20190;-73
2024/03/17 03:20:35;;;;;;;6.07;2.67;;;22.30;77.80;;;;;;5089739;28;20206;-72
2024/03/17 03:23:03;;;;;;;4.47;2.47;;;22.20;77.80;;;;;;5086945;28;20182;-73
2024/03/17 03:25:30;;;;;;;8.23;2.83;;;22.40;78.90;;;;;;5086538;28;20186;-74
2024/03/17 03:27:57;;;;;;;4.50;2.07;;;22.40;77.80;;;;;;5090016;28;20174;-73
2024/03/17 03:30:25;;;;;;;4.57;2.23;;;22.40;77.40;;;;;;5087351;28;20179;-73
2024/03/17 03:32:53;;;;;;;4.77;2.00;;;22.40;77.40;;;;;;5089384;28;20190;-72
2024/03/17 03:35:21;;;;;;;5.63;2.40;;;22.40;78.00;;;;;;5088201;28;20171;-72
2024/03/17 03:37:48;;;;;;;3.77;1.60;;;22.50;78.30;;;;;;5090060;28;20249;-74
2024/03/17 03:40:18;;;;;;;6.17;1.80;;;22.40;77.40;;;;;;5095025;28;20194;-70
2024/03/17 03:42:47;;;;;;;4.07;1.73;;;22.30;77.60;;;;;;5095540;28;20190;-75
2024/03/17 03:45:17;;;;;;;5.77;1.83;;;22.20;77.20;;;;;;5102190;28;20665;-73
2024/03/17 03:47:44;;;;;;;4.93;2.23;;;22.20;77.90;;;;;;5092844;28;20170;-74
2024/03/17 03:50:14;;;;;;;5.20;2.30;;;22.30;77.90;;;;;;5085725;28;20194;-75
2024/03/17 03:52:42;;;;;;;5.87;2.40;;;22.30;78.00;;;;;;5097871;28;20179;-75
2024/03/17 03:55:15;;;;;;;7.10;2.10;;;22.30;78.20;;;;;;5101185;28;20192;-74
2024/03/17 03:57:47;;;;;;;8.50;2.90;;;22.10;78.70;;;;;;5090341;28;20171;-75
2024/03/17 04:00:21;;;;;;;7.77;2.83;;;22.10;79.90;;;;;;5076349;28;20297;-74
2024/03/17 04:02:53;;;;;;;6.67;2.60;;;22.20;80.40;;;;;;5084121;28;20201;-74
2024/03/17 04:05:20;;;;;;;6.30;3.20;;;22.10;80.40;;;;;;5090401;28;20182;-74
2024/03/17 04:07:48;;;;;;;6.23;3.27;;;22.10;80.70;;;;;;5092189;28;20261;-72
2024/03/17 04:10:18;;;;;;;4.53;3.40;;;22.00;80.20;;;;;;5086575;28;20229;-72
2024/03/17 04:12:46;;;;;;;5.27;3.67;;;22.00;80.60;;;;;;5092819;28;20186;-72
2024/03/17 04:15:14;;;;;;;5.87;4.63;;;22.00;80.60;;;;;;5094643;28;20174;-70
2024/03/17 04:17:42;;;;;;;5.87;3.60;;;22.00;80.50;;;;;;5098372;28;20202;-70
2024/03/17 04:20:13;;;;;;;8.13;3.93;;;21.90;80.50;;;;;;5089804;28;20202;-73
2024/03/17 04:22:43;;;;;;;6.47;4.37;;;21.90;80.70;;;;;;5097976;28;20179;-72
2024/03/17 04:25:11;;;;;;;8.23;4.53;;;21.90;80.40;;;;;;5097331;28;20227;-75
2024/03/17 04:27:39;;;;;;;5.67;5.17;;;21.80;80.90;;;;;;5098104;28;20213;-70
2024/03/17 04:30:07;;;;;;;8.67;5.90;;;21.80;81.00;;;;;;5099985;28;20169;-70
2024/03/17 04:32:35;;;;;;;6.43;5.87;;;21.80;81.00;;;;;;5080706;28;20175;-70
2024/03/17 04:35:03;;;;;;;6.37;5.77;;;21.90;81.30;;;;;;5096976;28;20197;-75
2024/03/17 04:37:30;;;;;;;7.70;7.00;;;22.00;81.00;;;;;;5102660;28;20202;-73
2024/03/17 04:39:58;;;;;;;7.40;6.83;;;22.10;81.10;;;;;;5104995;28;20269;-72
2024/03/17 04:42:25;;;;;;;7.03;6.43;;;22.10;81.00;;;;;;5099682;28;20189;-75
2024/03/17 04:44:56;;;;;;;9.67;8.73;;;22.10;81.40;;;;;;5105117;28;20209;-72
2024/03/17 04:47:23;;;;;;;11.90;10.90;;;22.10;81.90;;;;;;5102364;28;20353;-71
2024/03/17 04:49:50;;;;;;;14.20;13.23;;;22.10;82.20;;;;;;5102984;28;20193;-73
2024/03/17 04:52:17;;;;;;;17.83;16.43;;;22.00;82.40;;;;;;5102367;28;20190;-73
2024/03/17 04:54:47;;;;;;;22.57;21.17;;;21.90;82.90;;;;;;5093853;28;20316;-74
2024/03/17 04:57:14;;;;;;;23.93;22.43;;;21.80;83.40;;;;;;5102511;28;20185;-71
2024/03/17 04:59:46;;;;;;;24.03;22.23;;;21.70;83.50;;;;;;5099546;28;20663;-71
2024/03/17 05:02:13;;;;;;;22.07;20.60;;;21.60;82.20;;;;;;5088778;28;20314;-73
2024/03/17 05:04:43;;;;;;;21.50;20.20;;;21.60;81.80;;;;;;5093120;28;20185;-75
2024/03/17 05:07:11;;;;;;;22.63;21.17;;;21.80;82.30;;;;;;5106543;28;20264;-73
2024/03/17 05:09:40;;;;;;;30.87;29.03;;;21.70;82.70;;;;;;5096245;28;20177;-74
2024/03/17 05:12:07;;;;;;;34.37;31.93;;;21.60;83.90;;;;;;5080434;28;20194;-74
2024/03/17 05:14:35;;;;;;;45.57;42.70;;;21.60;84.30;;;;;;5091900;28;20269;-75
2024/03/17 05:17:03;;;;;;;44.13;41.67;;;21.50;84.30;;;;;;5096342;28;20620;-72
2024/03/17 05:19:30;;;;;;;44.30;41.97;;;21.60;85.00;;;;;;5096703;28;20183;-74
2024/03/17 05:21:59;;;;;;;44.13;41.63;;;21.70;85.40;;;;;;5103830;28;20309;-74
2024/03/17 05:24:27;;;;;;;40.63;38.23;;;21.70;85.00;;;;;;5095952;28;20178;-74
2024/03/17 05:26:55;;;;;;;41.80;39.30;;;21.70;85.40;;;;;;5109279;28;20182;-75
2024/03/17 05:29:23;;;;;;;37.57;35.47;;;21.80;85.50;;;;;;5101653;28;20425;-75
2024/03/17 05:31:51;;;;;;;43.10;40.37;;;21.80;84.90;;;;;;5085918;28;20840;-75
2024/03/17 05:34:18;;;;;;;39.00;36.87;;;21.80;84.80;;;;;;5095411;28;20194;-73
2024/03/17 05:36:46;;;;;;;39.20;36.97;;;21.70;84.60;;;;;;5082031;28;20178;-71
2024/03/17 05:39:14;;;;;;;37.93;35.73;;;21.80;84.80;;;;;;5100172;28;20227;-70
2024/03/17 05:41:43;;;;;;;39.67;36.97;;;21.60;84.30;;;;;;5081797;28;20684;-71
2024/03/17 05:44:11;;;;;;;38.60;36.50;;;21.60;84.50;;;;;;5098940;28;20656;-71
2024/03/17 05:46:38;;;;;;;45.47;42.87;;;21.60;84.60;;;;;;5090472;28;20707;-69
2024/03/17 05:49:06;;;;;;;44.73;42.23;;;21.60;84.70;;;;;;5101273;28;20178;-71
2024/03/17 05:51:34;;;;;;;40.73;38.33;;;21.50;84.60;;;;;;5091521;28;20182;-72
2024/03/17 05:54:01;;;;;;;42.33;40.00;;;21.50;84.60;;;;;;5090493;28;20609;-71
2024/03/17 05:56:28;;;;;;;40.23;38.03;;;21.50;84.60;;;;;;5100228;28;20190;-71
2024/03/17 05:58:55;;;;;;;39.20;36.63;;;21.50;84.30;;;;;;5095901;28;20191;-74
2024/03/17 06:01:23;;;;;;;35.03;33.03;;;21.60;83.90;;;;;;5099184;28;20624;-71
2024/03/17 06:03:53;;;;;;;41.20;38.60;;;21.60;84.00;;;;;;5082151;28;20201;-71
2024/03/17 06:06:23;;;;;;;34.17;32.23;;;21.70;83.70;;;;;;5101479;28;20186;-72
2024/03/17 06:08:54;;;;;;;37.10;35.10;;;21.70;83.50;;;;;;5100807;28;20189;-70
2024/03/17 06:11:22;;;;;;;31.63;29.77;;;21.80;83.50;;;;;;5097944;28;20289;-71
2024/03/17 06:13:50;;;;;;;31.83;30.07;;;21.90;82.90;;;;;;5080906;28;20190;-74
2024/03/17 06:16:20;;;;;;;29.73;27.80;;;22.00;83.30;;;;;;5082518;28;20183;-71
2024/03/17 06:18:50;;;;;;;30.07;28.20;;;22.00;82.90;;;;;;5103635;28;20508;-69
2024/03/17 06:21:18;;;;;;;30.27;28.27;;;22.10;83.10;;;;;;5102472;28;20205;-72
2024/03/17 06:23:46;;;;;;;32.20;30.10;;;22.20;83.60;;;;;;5100846;28;20179;-71
2024/03/17 06:26:14;;;;;;;31.97;29.97;;;22.30;83.10;;;;;;5101496;28;20269;-73
2024/03/17 06:28:42;;;;;;;32.90;30.80;;;22.10;83.00;;;;;;5100498;28;20260;-70
2024/03/17 06:31:12;;;;;;;34.63;32.70;;;21.90;83.50;;;;;;5089794;28;20186;-73
2024/03/17 06:33:39;;;;;;;38.07;35.87;;;21.90;83.90;;;;;;5095947;28;20187;-72
2024/03/17 06:36:08;;;;;;;39.17;37.07;;;21.80;84.10;;;;;;5100195;28;20178;-71
2024/03/17 06:38:35;;;;;;;42.07;39.77;;;21.80;84.70;;;;;;5095175;28;20234;-73
2024/03/17 06:41:03;;;;;;;48.80;45.97;;;21.70;85.40;;;;;;5098750;28;20232;-72
2024/03/17 06:43:30;;;;;;;44.43;42.07;;;21.80;85.60;;;;;;5077188;28;20214;-72
2024/03/17 06:45:59;;;;;;;46.23;43.77;;;21.70;85.70;;;;;;5093052;28;20186;-72
2024/03/17 06:48:28;;;;;;;45.53;43.03;;;21.70;85.90;;;;;;5100782;28;20650;-72
2024/03/17 06:50:58;;;;;;;52.10;49.30;;;21.70;86.30;;;;;;5095962;28;20194;-73
2024/03/17 06:53:26;;;;;;;57.70;54.63;;;21.60;86.30;;;;;;5098198;28;20183;-72
2024/03/17 06:55:57;;;;;;;61.03;57.73;;;21.70;87.10;;;;;;5091093;28;20637;-71
2024/03/17 06:58:29;;;;;;;66.33;62.83;;;21.70;87.30;;;;;;5098243;28;20306;-74
2024/03/17 07:01:05;;;;;;;66.30;62.83;;;21.70;87.30;;;;;;5103365;28;20682;-71
2024/03/17 07:03:36;;;;;;;80.63;75.03;;;21.70;87.20;;;;;;5082739;28;20189;-72
2024/03/17 07:06:04;;;;;;;78.00;73.03;;;21.70;87.30;;;;;;5091167;28;20243;-74
2024/03/17 07:08:32;;;;;;;77.80;73.23;;;21.70;87.70;;;;;;5101147;28;20516;-71
2024/03/17 07:11:06;;;;;;;76.33;72.30;;;21.60;87.60;;;;;;5081173;28;20194;-76
2024/03/17 07:13:41;;;;;;;75.27;71.07;;;21.60;87.50;;;;;;5101484;28;20183;-75
2024/03/17 07:16:09;;;;;;;76.23;71.90;;;21.50;87.60;;;;;;5082128;28;20754;-71
2024/03/17 07:18:38;;;;;;;82.07;77.70;;;21.30;87.10;;;;;;5095967;28;20248;-72
2024/03/17 07:21:09;;;;;;;79.40;74.90;;;21.30;87.20;;;;;;5098322;28;20226;-73
2024/03/17 07:23:41;;;;;;;74.53;70.50;;;21.20;87.10;;;;;;5095098;28;20319;-72
2024/03/17 07:26:09;;;;;;;76.07;72.07;;;21.20;87.00;;;;;;5095607;28;20194;-72
2024/03/17 07:28:45;;;;;;;79.27;75.07;;;21.20;86.80;;;;;;5094579;28;20684;-73
2024/03/17 07:31:13;;;;;;;78.37;74.47;;;21.20;87.00;;;;;;5096353;28;20207;-72
2024/03/17 07:33:40;;;;;;;78.13;73.80;;;21.10;86.90;;;;;;5084919;28;20182;-74
2024/03/17 07:36:10;;;;;;;74.47;70.40;;;21.10;86.70;;;;;;5094487;28;20190;-75
2024/03/17 07:38:38;;;;;;;75.67;71.80;;;21.10;86.90;;;;;;5101685;28;20742;-73
2024/03/17 07:41:08;;;;;;;75.23;71.20;;;21.20;86.90;;;;;;5095522;28;20222;-75
2024/03/17 07:43:38;;;;;;;77.67;73.73;;;21.10;86.80;;;;;;5101170;28;20175;-71
2024/03/17 07:46:13;;;;;;;72.67;68.67;;;21.10;86.70;;;;;;5095697;28;20186;-75
2024/03/17 07:48:42;;;;;;;72.10;68.30;;;21.10;86.60;;;;;;5103107;28;20317;-75
2024/03/17 07:51:11;;;;;;;78.13;73.90;;;21.10;86.80;;;;;;5095722;28;20202;-73
2024/03/17 07:53:40;;;;;;;78.40;74.03;;;21.00;86.90;;;;;;5102085;28;20206;-74
2024/03/17 07:56:09;;;;;;;82.43;77.93;;;21.00;86.70;;;;;;5094270;28;20575;-75
2024/03/17 07:58:40;;;;;;;83.63;79.23;;;21.00;87.10;;;;;;5099589;28;20186;-73
2024/03/17 08:01:09;;;;;;;76.10;71.87;;;21.00;87.00;;;;;;5094692;28;20276;-71
2024/03/17 08:03:39;;;;;;;76.33;72.33;;;21.00;87.10;;;;;;5102512;28;20186;-72
2024/03/17 08:06:10;;;;;;;79.93;75.67;;;21.00;87.20;;;;;;5096156;28;20238;-71
2024/03/17 08:08:38;;;;;;;86.13;81.63;;;21.00;87.30;;;;;;5082514;28;20281;-73
2024/03/17 08:11:06;;;;;;;82.07;77.70;;;21.00;87.20;;;;;;5090818;28;20189;-73
2024/03/17 08:13:35;;;;;;;82.93;78.70;;;20.90;87.10;;;;;;5081224;28;20175;-74
2024/03/17 08:16:08;;;;;;;84.53;80.27;;;20.90;87.20;;;;;;5097028;28;20194;-72
2024/03/17 08:18:36;;;;;;;86.50;82.13;;;20.90;87.20;;;;;;5102725;28;20174;-74
2024/03/17 08:21:06;;;;;;;90.67;86.07;;;20.80;87.40;;;;;;5096748;28;20267;-74
2024/03/17 08:23:39;;;;;;;94.70;89.57;;;20.80;87.40;;;;;;5083507;28;20189;-75
2024/03/17 08:26:07;;;;;;;84.07;79.67;;;20.80;87.40;;;;;;5072606;28;20269;-73
2024/03/17 08:28:34;;;;;;;91.73;86.73;;;20.80;87.40;;;;;;5078597;28;20193;-73
2024/03/17 08:31:05;;;;;;;99.10;94.00;;;20.70;87.60;;;;;;5077432;28;20178;-73
2024/03/17 08:33:33;;;;;;;102.80;97.40;;;20.70;87.80;;;;;;5100037;28;20189;-74
2024/03/17 08:36:09;;;;;;;90.07;85.47;;;20.70;88.00;;;;;;5076353;28;20201;-72
2024/03/17 08:38:38;;;;;;;104.67;99.37;;;20.70;88.00;;;;;;5098949;28;20669;-72
2024/03/17 08:41:07;;;;;;;108.80;103.37;;;20.70;88.30;;;;;;5097250;28;20210;-72
2024/03/17 08:43:35;;;;;;;111.67;105.70;;;20.60;88.30;;;;;;5097775;28;20542;-71
2024/03/17 08:46:13;;;;;;;107.20;101.67;;;20.70;88.40;;;;;;5097873;28;20550;-71
2024/03/17 08:48:42;;;;;;;108.07;102.47;;;20.70;88.50;;;;;;5080492;28;20257;-74
2024/03/17 08:51:10;;;;;;;114.93;108.93;;;20.70;88.60;;;;;;5091259;28;20236;-75
2024/03/17 08:53:39;;;;;;;113.77;107.73;;;20.70;88.80;;;;;;5082692;28;20737;-71
2024/03/17 08:56:08;;;;;;;115.20;108.97;;;20.70;88.80;;;;;;5091200;28;20277;-74
2024/03/17 08:58:39;;;;;;;126.90;120.27;;;20.70;88.80;;;;;;5096344;28;20183;-73
2024/03/17 09:01:08;;;;;;;118.67;112.57;;;20.70;88.90;;;;;;5098159;28;20301;-71
2024/03/17 09:03:36;;;;;;;120.63;114.63;;;20.60;88.90;;;;;;5093118;28;20174;-75
2024/03/17 09:06:15;;;;;;;120.07;113.87;;;20.60;88.90;;;;;;5095972;28;20627;-70
2024/03/17 09:08:46;;;;;;;129.57;123.10;;;20.60;88.90;;;;;;5099114;28;20178;-75
2024/03/17 09:11:15;;;;;;;122.80;116.57;;;20.60;88.70;;;;;;5078945;28;20194;-72
2024/03/17 09:13:42;;;;;;;123.23;117.03;;;20.60;88.70;;;;;;5104056;28;20203;-71
2024/03/17 09:16:11;;;;;;;130.83;124.13;;;20.60;88.80;;;;;;5097356;28;20182;-72
2024/03/17 09:18:38;;;;;;;136.33;129.47;;;20.60;88.80;;;;;;5103873;28;20265;-71
2024/03/17 09:21:10;;;;;;;132.87;126.07;;;20.60;88.80;;;;;;5096523;28;20301;-72
2024/03/17 09:23:38;;;;;;;133.10;126.37;;;20.60;88.80;;;;;;5105393;28;20178;-71
2024/03/17 09:26:09;;;;;;;137.70;130.83;;;20.50;88.90;;;;;;5097655;28;20186;-75
2024/03/17 09:28:37;;;;;;;143.33;136.20;;;20.50;88.90;;;;;;5068842;28;20403;-71
2024/03/17 09:31:07;;;;;;;138.93;131.87;;;20.50;89.10;;;;;;5098737;28;20198;-71
2024/03/17 09:33:36;;;;;;;146.00;138.77;;;20.40;89.10;;;;;;5103296;28;20178;-75
2024/03/17 09:36:10;;;;;;;145.27;138.07;;;20.50;89.30;;;;;;5099366;28;20190;-75
2024/03/17 09:38:38;;;;;;;155.60;147.83;;;20.40;89.20;;;;;;5104857;28;20724;-73
2024/03/17 09:41:07;;;;;;;152.07;144.47;;;20.40;89.30;;;;;;5082965;28;20276;-72
2024/03/17 09:43:36;;;;;;;159.97;151.87;;;20.40;89.30;;;;;;5082712;28;20179;-71
2024/03/17 09:46:05;;;;;;;157.00;149.27;;;20.50;89.40;;;;;;5083610;28;20191;-72
2024/03/17 09:48:33;;;;;;;161.23;153.37;;;20.50;89.40;;;;;;5084630;28;20186;-71
2024/03/17 09:51:02;;;;;;;161.60;153.60;;;20.40;89.40;;;;;;5080456;28;20268;-71
2024/03/17 09:53:34;;;;;;;167.60;159.10;;;20.40;89.40;;;;;;5084929;28;20181;-69
2024/03/17 09:56:11;;;;;;;160.17;152.17;;;20.40;89.40;;;;;;5073554;28;20192;-72
2024/03/17 09:58:39;;;;;;;167.03;158.87;;;20.40;89.50;;;;;;5097909;28;20189;-69
2024/03/17 10:01:06;;;;;;;161.80;154.00;;;20.30;89.40;;;;;;5080526;28;20226;-70
2024/03/17 10:03:51;;;;;;;165.10;156.83;;;20.30;89.60;;;;;;5097622;28;20183;-73
2024/03/17 10:06:19;;;;;;;159.30;151.50;;;20.30;89.90;;;;;;5078256;28;20195;-73
2024/03/17 10:08:52;;;;;;;170.67;162.20;;;20.30;89.90;;;;;;5080801;28;20667;-72
2024/03/17 10:11:25;;;;;;;169.50;161.10;;;20.30;89.90;;;;;;5082505;28;20197;-74
2024/03/17 10:14:03;;;;;;;174.47;166.07;;;20.30;90.00;;;;;;5106284;28;20690;-71
2024/03/17 10:16:32;;;;;;;172.00;163.70;;;20.20;90.10;;;;;;5097365;28;20228;-71
2024/03/17 10:19:15;;;;;;;182.87;173.73;;;20.20;90.10;;;;;;5096702;28;20181;-71
2024/03/17 10:21:49;;;;;;;178.47;169.77;;;20.20;90.10;;;;;;5098451;28;20235;-70
2024/03/17 10:24:25;;;;;;;175.90;167.30;;;20.10;90.10;;;;;;5099867;28;20178;-71
2024/03/17 10:26:55;;;;;;;183.20;174.40;;;20.00;90.10;;;;;;5084356;28;20327;-73
2024/03/17 10:29:36;;;;;;;191.77;182.53;;;20.00;90.20;;;;;;5094615;28;20178;-71
2024/03/17 10:32:13;;;;;;;189.53;180.47;;;19.90;90.20;;;;;;5098857;28;20184;-69
2024/03/17 10:34:41;;;;;;;186.23;177.13;;;19.90;90.30;;;;;;5079989;28;20178;-73
2024/03/17 10:37:13;;;;;;;190.03;180.93;;;19.80;90.30;;;;;;5089622;28;20185;-70
2024/03/17 10:39:42;;;;;;;198.37;188.60;;;19.80;90.40;;;;;;5101625;28;20195;-74
2024/03/17 10:42:13;;;;;;;184.33;175.50;;;19.80;90.40;;;;;;5096392;28;20363;-71
2024/03/17 10:44:45;;;;;;;166.67;158.47;;;19.80;90.60;;;;;;5101242;28;20190;-72
2024/03/17 10:47:25;;;;;;;185.90;176.83;;;19.80;90.70;;;;;;5076750;28;20263;-71
2024/03/17 10:49:54;;;;;;;198.70;189.03;;;19.80;90.70;;;;;;5099782;28;20249;-73
2024/03/17 10:52:26;;;;;;;194.83;185.50;;;19.80;90.70;;;;;;5096852;28;20278;-71
2024/03/17 10:55:02;;;;;;;207.50;197.60;;;19.80;90.80;;;;;;5100137;28;20189;-71
2024/03/17 10:57:45;;;;;;;199.00;189.47;;;19.70;90.90;;;;;;5091843;28;20182;-70
2024/03/17 11:00:17;;;;;;;204.37;194.50;;;19.70;90.90;;;;;;5092838;28;20213;-74
2024/03/17 11:03:00;;;;;;;202.07;192.13;;;19.70;91.00;;;;;;5097402;28;20186;-73
2024/03/17 11:05:30;;;;;;;216.67;206.40;;;19.70;91.00;;;;;;5096523;28;20539;-70
2024/03/17 11:08:01;;;;;;;194.83;185.33;;;19.70;91.10;;;;;;5095987;28;20665;-70
2024/03/17 11:10:33;;;;;;;200.50;190.87;;;19.60;91.10;;;;;;5100742;28;20202;-71
2024/03/17 11:13:22;;;;;;;219.37;208.90;;;19.70;91.20;;;;;;5081467;28;20186;-72
2024/03/17 11:15:51;;;;;;;222.07;211.57;;;19.70;91.30;;;;;;5085071;28;20186;-70
2024/03/17 11:18:22;;;;;;;223.13;212.60;;;19.70;91.40;;;;;;5076353;28;20637;-71
2024/03/17 11:21:15;;;;;;;233.07;221.97;;;19.70;91.40;;;;;;5098863;28;20269;-70
2024/03/17 11:23:55;;;;;;;239.50;228.27;;;19.70;91.40;;;;;;5095936;28;20643;-69
2024/03/17 11:26:29;;;;;;;248.20;236.50;;;19.80;91.60;;;;;;5090962;28;20186;-72
2024/03/17 11:28:58;;;;;;;251.10;239.37;;;19.80;91.70;;;;;;5078832;28;20181;-73
2024/03/17 11:31:41;;;;;;;256.07;244.00;;;19.90;91.60;;;;;;5093151;28;20183;-72
2024/03/17 11:34:32;;;;;;;252.07;240.27;;;19.90;91.50;;;;;;5092874;28;20178;-72
2024/03/17 11:37:03;;;;;;;253.47;241.63;;;19.90;91.50;;;;;;5091135;28;20295;-71
2024/03/17 11:39:56;;;;;;;268.83;256.23;;;19.90;91.50;;;;;;5101847;28;20213;-70
2024/03/17 11:42:25;;;;;;;273.40;260.53;;;19.90;91.40;;;;;;5097892;28;20190;-72
2024/03/17 11:45:06;;;;;;;265.63;253.13;;;19.80;91.40;;;;;;5084511;28;20663;-70
2024/03/17 11:47:38;;;;;;;268.73;256.27;;;19.80;91.50;;;;;;5098469;28;20186;-72
2024/03/17 11:50:09;;;;;;;269.73;257.03;;;19.80;91.60;;;;;;5100048;28;20198;-72
2024/03/17 11:52:38;;;;;;;263.77;251.57;;;19.80;91.60;;;;;;5100368;28;20178;-73
2024/03/17 11:55:06;;;;;;;266.70;254.33;;;19.70;91.70;;;;;;5100554;28;20178;-70
2024/03/17 11:57:33;;;;;;;281.67;268.57;;;19.70;91.70;;;;;;5099695;28;20227;-70
2024/03/17 12:00:02;;;;;;;286.30;273.03;;;19.70;91.70;;;;;;5101390;28;20201;-71
2024/03/17 12:02:34;;;;;;;285.53;272.37;;;19.70;91.70;;;;;;5090177;28;20676;-71
2024/03/17 12:05:06;;;;;;;274.40;261.70;;;19.60;91.70;;;;;;5092600;28;20493;-74
2024/03/17 12:07:33;;;;;;;276.80;263.83;;;19.50;91.80;;;;;;5097233;28;20218;-73
2024/03/17 12:10:02;;;;;;;287.80;274.53;;;19.50;91.90;;;;;;5099461;28;20653;-71
2024/03/17 12:12:36;;;;;;;289.07;275.53;;;19.50;91.90;;;;;;5093875;28;20185;-71
2024/03/17 12:15:14;;;;;;;305.33;291.37;;;19.50;92.10;;;;;;5096836;28;20218;-71
2024/03/17 12:17:42;;;;;;;299.00;285.30;;;19.50;92.20;;;;;;5098067;28;20183;-74
2024/03/17 12:20:23;;;;;;;312.43;297.93;;;19.60;92.30;;;;;;5097325;28;20186;-74
2024/03/17 12:22:52;;;;;;;326.80;311.77;;;19.60;92.30;;;;;;5097247;28;20807;-73
2024/03/17 12:25:23;;;;;;;342.00;326.27;;;19.60;92.20;;;;;;5095696;28;20182;-73
2024/03/17 12:27:50;;;;;;;343.57;327.90;;;19.60;92.30;;;;;;5100831;28;20197;-70
2024/03/17 12:30:18;;;;;;;353.70;337.37;;;19.60;92.30;;;;;;5094898;28;20190;-72
2024/03/17 12:32:46;;;;;;;355.03;338.53;;;19.60;92.40;;;;;;5096074;28;20175;-71
2024/03/17 12:35:18;;;;;;;365.97;348.87;;;19.70;92.40;;;;;;5083498;28;20194;-73
2024/03/17 12:37:46;;;;;;;367.70;350.90;;;19.60;92.30;;;;;;5083836;28;20225;-71
2024/03/17 12:40:24;;;;;;;369.43;352.57;;;19.60;92.40;;;;;;5103422;28;20213;-71
2024/03/17 12:42:52;;;;;;;370.00;353.07;;;19.60;92.40;;;;;;5103137;28;20173;-74